sensor_id;sensor_type;location;lat;lon;timestamp;pressure;altitude;pressure_sealevel;temperature;humidity
32081;BME280;18593;51.426;7.030;2023-03-22T00:01:18;100050.56;;;12.04;64.85
32081;BME280;18593;51.426;7.030;2023-03-22T00:03:47;100052.44;;;12.04;65.00
32081;BME280;18593;51.426;7.030;2023-03-22T00:06:14;100050.56;;;12.04;65.09
32081;BME280;18593;51.426;7.030;2023-03-22T00:08:43;100046.28;;;12.03;64.86
32081;BME280;18593;51.426;7.030;2023-03-22T00:11:11;100047.09;;;12.04;64.91
32081;BME280;18593;51.426;7.030;2023-03-22T00:13:38;100042.00;;;12.02;65.07
32081;BME280;18593;51.426;7.030;2023-03-22T00:16:08;100040.94;;;12.03;65.07
32081;BME280;18593;51.426;7.030;2023-03-22T00:18:35;100035.59;;;12.03;64.49
32081;BME280;18593;51.426;7.030;2023-03-22T00:21:02;100040.94;;;12.03;64.47
32081;BME280;18593;51.426;7.030;2023-03-22T00:23:29;100039.88;;;12.04;64.74
32081;BME280;18593;51.426;7.030;2023-03-22T00:25:58;100036.41;;;12.04;64.83
32081;BME280;18593;51.426;7.030;2023-03-22T00:28:25;100028.19;;;12.05;64.74
32081;BME280;18593;51.426;7.030;2023-03-22T00:30:53;100025.25;;;12.07;64.58
32081;BME280;18593;51.426;7.030;2023-03-22T00:33:20;100029.56;;;12.08;64.37
32081;BME280;18593;51.426;7.030;2023-03-22T00:35:49;100024.22;;;12.08;64.37
32081;BME280;18593;51.426;7.030;2023-03-22T00:38:16;100028.50;;;12.09;64.54
32081;BME280;18593;51.426;7.030;2023-03-22T00:40:43;100023.97;;;12.09;64.56
32081;BME280;18593;51.426;7.030;2023-03-22T00:43:12;100022.09;;;12.10;64.47
32081;BME280;18593;51.426;7.030;2023-03-22T00:45:39;100014.31;;;12.08;64.29
32081;BME280;18593;51.426;7.030;2023-03-22T00:48:07;100007.34;;;12.07;63.77
32081;BME280;18593;51.426;7.030;2023-03-22T00:50:34;100013.50;;;12.08;64.14
32081;BME280;18593;51.426;7.030;2023-03-22T00:53:02;100010.03;;;12.07;64.38
32081;BME280;18593;51.426;7.030;2023-03-22T00:55:29;100006.56;;;12.07;64.17
32081;BME280;18593;51.426;7.030;2023-03-22T00:57:56;100003.28;;;12.05;64.21
32081;BME280;18593;51.426;7.030;2023-03-22T01:00:25;99996.31;;;12.04;64.46
32081;BME280;18593;51.426;7.030;2023-03-22T01:02:52;99990.41;;;12.02;64.55
32081;BME280;18593;51.426;7.030;2023-03-22T01:05:25;99986.91;;;12.01;64.82
32081;BME280;18593;51.426;7.030;2023-03-22T01:07:53;99987.94;;;12.00;64.88
32081;BME280;18593;51.426;7.030;2023-03-22T01:10:21;99988.19;;;11.99;64.69
32081;BME280;18593;51.426;7.030;2023-03-22T01:12:48;99985.75;;;11.97;64.47
32081;BME280;18593;51.426;7.030;2023-03-22T01:15:16;99982.03;;;11.98;64.50
32081;BME280;18593;51.426;7.030;2023-03-22T01:17:44;99984.69;;;11.98;64.96
32081;BME280;18593;51.426;7.030;2023-03-22T01:20:11;99975.88;;;11.98;64.82
32081;BME280;18593;51.426;7.030;2023-03-22T01:22:39;99974.25;;;11.97;64.78
32081;BME280;18593;51.426;7.030;2023-03-22T01:25:07;99969.72;;;11.97;64.87
32081;BME280;18593;51.426;7.030;2023-03-22T01:27:34;99971.34;;;11.98;64.81
32081;BME280;18593;51.426;7.030;2023-03-22T01:30:01;99973.19;;;11.98;65.15
32081;BME280;18593;51.426;7.030;2023-03-22T01:32:28;99972.38;;;11.97;64.88
32081;BME280;18593;51.426;7.030;2023-03-22T01:34:56;99964.59;;;11.96;65.08
32081;BME280;18593;51.426;7.030;2023-03-22T01:37:27;99965.63;;;11.95;65.20
32081;BME280;18593;51.426;7.030;2023-03-22T01:39:55;99951.47;;;11.94;65.13
32081;BME280;18593;51.426;7.030;2023-03-22T01:42:23;99955.44;;;11.92;64.98
32081;BME280;18593;51.426;7.030;2023-03-22T01:45:26;99949.84;;;11.93;65.28
32081;BME280;18593;51.426;7.030;2023-03-22T01:48:01;99941.00;;;11.93;65.17
32081;BME280;18593;51.426;7.030;2023-03-22T01:50:36;99941.25;;;11.91;65.41
32081;BME280;18593;51.426;7.030;2023-03-22T01:53:04;99939.41;;;11.92;65.61
32081;BME280;18593;51.426;7.030;2023-03-22T01:55:35;99936.72;;;11.92;65.64
32081;BME280;18593;51.426;7.030;2023-03-22T01:58:25;99929.50;;;11.92;65.85
32081;BME280;18593;51.426;7.030;2023-03-22T02:00:57;99919.63;;;11.93;65.88
32081;BME280;18593;51.426;7.030;2023-03-22T02:03:44;99926.59;;;11.94;65.87
32081;BME280;18593;51.426;7.030;2023-03-22T02:06:15;99913.47;;;11.92;65.77
32081;BME280;18593;51.426;7.030;2023-03-22T02:08:42;99912.66;;;11.92;65.87
32081;BME280;18593;51.426;7.030;2023-03-22T02:11:15;99916.38;;;11.91;65.79
32081;BME280;18593;51.426;7.030;2023-03-22T02:13:54;99915.56;;;11.90;65.80
32081;BME280;18593;51.426;7.030;2023-03-22T02:16:48;99911.50;;;11.88;65.82
32081;BME280;18593;51.426;7.030;2023-03-22T02:19:42;99916.03;;;11.87;65.68
32081;BME280;18593;51.426;7.030;2023-03-22T02:22:29;99908.47;;;11.84;65.79
32081;BME280;18593;51.426;7.030;2023-03-22T02:28:12;99894.72;;;11.80;65.72
32081;BME280;18593;51.426;7.030;2023-03-22T02:31:13;99893.34;;;11.78;65.94
32081;BME280;18593;51.426;7.030;2023-03-22T02:37:08;99887.66;;;11.74;65.88
32081;BME280;18593;51.426;7.030;2023-03-22T02:39:43;99885.78;;;11.75;65.99
32081;BME280;18593;51.426;7.030;2023-03-22T02:42:25;99881.75;;;11.72;65.76
32081;BME280;18593;51.426;7.030;2023-03-22T02:44:57;99878.47;;;11.70;65.87
32081;BME280;18593;51.426;7.030;2023-03-22T02:47:32;99874.44;;;11.68;65.94
32081;BME280;18593;51.426;7.030;2023-03-22T02:50:06;99874.66;;;11.66;65.96
32081;BME280;18593;51.426;7.030;2023-03-22T02:52:37;99874.66;;;11.66;65.96
32081;BME280;18593;51.426;7.030;2023-03-22T02:55:09;99870.34;;;11.65;66.11
32081;BME280;18593;51.426;7.030;2023-03-22T02:57:40;99864.44;;;11.63;66.19
32081;BME280;18593;51.426;7.030;2023-03-22T03:00:08;99867.13;;;11.63;66.22
32081;BME280;18593;51.426;7.030;2023-03-22T03:02:37;99864.44;;;11.63;66.08
32081;BME280;18593;51.426;7.030;2023-03-22T03:05:08;99860.16;;;11.62;65.95
32081;BME280;18593;51.426;7.030;2023-03-22T03:07:35;99860.38;;;11.60;66.27
32081;BME280;18593;51.426;7.030;2023-03-22T03:10:07;99861.19;;;11.61;66.21
32081;BME280;18593;51.426;7.030;2023-03-22T03:12:34;99861.41;;;11.59;66.27
32081;BME280;18593;51.426;7.030;2023-03-22T03:15:04;99857.13;;;11.58;66.20
32081;BME280;18593;51.426;7.030;2023-03-22T03:17:43;99865.13;;;11.58;66.28
32081;BME280;18593;51.426;7.030;2023-03-22T03:20:21;99860.84;;;11.57;66.22
32081;BME280;18593;51.426;7.030;2023-03-22T03:23:01;99860.03;;;11.57;66.13
32081;BME280;18593;51.426;7.030;2023-03-22T03:25:33;99856.78;;;11.55;66.39
32081;BME280;18593;51.426;7.030;2023-03-22T03:28:10;99855.16;;;11.54;66.29
32081;BME280;18593;51.426;7.030;2023-03-22T03:30:44;99852.72;;;11.52;66.17
32081;BME280;18593;51.426;7.030;2023-03-22T03:33:15;99850.25;;;11.51;66.54
32081;BME280;18593;51.426;7.030;2023-03-22T03:35:46;99851.31;;;11.50;66.27
32081;BME280;18593;51.426;7.030;2023-03-22T03:38:17;99847.84;;;11.49;66.42
32081;BME280;18593;51.426;7.030;2023-03-22T03:40:49;99844.81;;;11.46;66.52
32081;BME280;18593;51.426;7.030;2023-03-22T03:43:17;99839.47;;;11.46;66.60
32081;BME280;18593;51.426;7.030;2023-03-22T03:45:44;99840.28;;;11.46;66.59
32081;BME280;18593;51.426;7.030;2023-03-22T03:48:13;99833.31;;;11.45;66.61
32081;BME280;18593;51.426;7.030;2023-03-22T03:50:43;99831.69;;;11.44;66.57
32081;BME280;18593;51.426;7.030;2023-03-22T03:53:11;99827.16;;;11.45;66.87
32081;BME280;18593;51.426;7.030;2023-03-22T03:55:38;99828.22;;;11.44;66.66
32081;BME280;18593;51.426;7.030;2023-03-22T03:58:06;99830.88;;;11.44;66.77
32081;BME280;18593;51.426;7.030;2023-03-22T04:00:34;99834.63;;;11.43;66.79
32081;BME280;18593;51.426;7.030;2023-03-22T04:03:30;99842.03;;;11.41;66.56
32081;BME280;18593;51.426;7.030;2023-03-22T04:06:10;99829.47;;;11.41;66.74
32081;BME280;18593;51.426;7.030;2023-03-22T04:08:40;99832.41;;;11.40;66.91
32081;BME280;18593;51.426;7.030;2023-03-22T04:11:11;99829.16;;;11.38;66.98
32081;BME280;18593;51.426;7.030;2023-03-22T04:13:40;99842.28;;;11.39;66.95
32081;BME280;18593;51.426;7.030;2023-03-22T04:16:12;99832.63;;;11.38;67.00
32081;BME280;18593;51.426;7.030;2023-03-22T04:18:39;99831.03;;;11.37;66.79
32081;BME280;18593;51.426;7.030;2023-03-22T04:21:07;99826.94;;;11.34;67.07
32081;BME280;18593;51.426;7.030;2023-03-22T04:23:46;99822.66;;;11.33;67.04
32081;BME280;18593;51.426;7.030;2023-03-22T04:26:14;99822.06;;;11.31;67.12
32081;BME280;18593;51.426;7.030;2023-03-22T04:28:53;99824.72;;;11.31;67.19
32081;BME280;18593;51.426;7.030;2023-03-22T04:31:21;99819.38;;;11.31;67.21
32081;BME280;18593;51.426;7.030;2023-03-22T04:33:58;99814.28;;;11.30;67.12
32081;BME280;18593;51.426;7.030;2023-03-22T04:36:42;99813.72;;;11.28;67.25
32081;BME280;18593;51.426;7.030;2023-03-22T04:39:38;99810.69;;;11.24;67.33
32081;BME280;18593;51.426;7.030;2023-03-22T04:42:26;99818.69;;;11.24;67.65
32081;BME280;18593;51.426;7.030;2023-03-22T04:45:14;99819.75;;;11.23;67.48
32081;BME280;18593;51.426;7.030;2023-03-22T04:47:45;99813.13;;;11.26;67.44
32081;BME280;18593;51.426;7.030;2023-03-22T04:50:12;99798.97;;;11.25;67.41
32081;BME280;18593;51.426;7.030;2023-03-22T04:52:47;99801.63;;;11.25;67.32
32081;BME280;18593;51.426;7.030;2023-03-22T04:55:14;99809.63;;;11.25;67.23
32081;BME280;18593;51.426;7.030;2023-03-22T04:57:43;99817.66;;;11.25;67.10
32081;BME280;18593;51.426;7.030;2023-03-22T05:00:10;99821.81;;;11.21;67.17
32081;BME280;18593;51.426;7.030;2023-03-22T05:02:39;99823.91;;;11.19;67.25
32081;BME280;18593;51.426;7.030;2023-03-22T05:05:09;99825.53;;;11.20;67.39
32081;BME280;18593;51.426;7.030;2023-03-22T05:07:39;99821.00;;;11.21;67.38
32081;BME280;18593;51.426;7.030;2023-03-22T05:10:09;99813.81;;;11.21;67.45
32081;BME280;18593;51.426;7.030;2023-03-22T05:12:36;99815.31;;;11.17;67.44
32081;BME280;18593;51.426;7.030;2023-03-22T05:15:42;99812.66;;;11.17;67.44
32081;BME280;18593;51.426;7.030;2023-03-22T05:18:13;99816.16;;;11.18;67.52
32081;BME280;18593;51.426;7.030;2023-03-22T05:20:42;99817.97;;;11.17;67.69
32081;BME280;18593;51.426;7.030;2023-03-22T05:23:13;99813.94;;;11.15;67.74
32081;BME280;18593;51.426;7.030;2023-03-22T05:25:45;99820.66;;;11.17;67.74
32081;BME280;18593;51.426;7.030;2023-03-22T05:28:15;99808.34;;;11.16;67.64
32081;BME280;18593;51.426;7.030;2023-03-22T05:30:50;99817.41;;;11.15;67.83
32081;BME280;18593;51.426;7.030;2023-03-22T05:33:45;99809.41;;;11.15;67.78
32081;BME280;18593;51.426;7.030;2023-03-22T05:36:14;99812.66;;;11.17;67.91
32081;BME280;18593;51.426;7.030;2023-03-22T05:38:59;99808.97;;;11.18;67.83
32081;BME280;18593;51.426;7.030;2023-03-22T05:41:26;99800.72;;;11.20;67.95
32081;BME280;18593;51.426;7.030;2023-03-22T05:43:56;99806.84;;;11.20;67.87
32081;BME280;18593;51.426;7.030;2023-03-22T05:46:23;99808.47;;;11.21;68.00
32081;BME280;18593;51.426;7.030;2023-03-22T05:49:18;99796.75;;;11.22;68.08
32081;BME280;18593;51.426;7.030;2023-03-22T05:51:45;99809.06;;;11.23;68.14
32081;BME280;18593;51.426;7.030;2023-03-22T05:54:14;99808.59;;;11.26;68.06
32081;BME280;18593;51.426;7.030;2023-03-22T05:56:47;99805.91;;;11.26;68.10
32081;BME280;18593;51.426;7.030;2023-03-22T05:59:14;99816.84;;;11.25;68.01
32081;BME280;18593;51.426;7.030;2023-03-22T06:01:41;99801.63;;;11.25;68.23
32081;BME280;18593;51.426;7.030;2023-03-22T06:04:20;99800.81;;;11.25;68.23
32081;BME280;18593;51.426;7.030;2023-03-22T06:06:54;99809.19;;;11.28;68.13
32081;BME280;18593;51.426;7.030;2023-03-22T06:09:41;99796.66;;;11.29;68.30
32081;BME280;18593;51.426;7.030;2023-03-22T06:12:13;99794.78;;;11.29;68.09
32081;BME280;18593;51.426;7.030;2023-03-22T06:14:42;99800.69;;;11.31;68.30
32081;BME280;18593;51.426;7.030;2023-03-22T06:17:16;99790.03;;;11.31;68.27
32081;BME280;18593;51.426;7.030;2023-03-22T06:19:45;99798.63;;;11.33;68.40
32081;BME280;18593;51.426;7.030;2023-03-22T06:22:13;99797.34;;;11.36;68.43
32081;BME280;18593;51.426;7.030;2023-03-22T06:24:41;99799.56;;;11.39;68.45
32081;BME280;18593;51.426;7.030;2023-03-22T06:27:12;99805.94;;;11.38;68.67
32081;BME280;18593;51.426;7.030;2023-03-22T06:29:40;99806.50;;;11.40;68.47
32081;BME280;18593;51.426;7.030;2023-03-22T06:32:07;99811.03;;;11.40;68.41
32081;BME280;18593;51.426;7.030;2023-03-22T06:34:34;99815.13;;;11.42;68.62
32081;BME280;18593;51.426;7.030;2023-03-22T06:37:03;99807.66;;;11.44;68.37
32081;BME280;18593;51.426;7.030;2023-03-22T06:39:33;99806.06;;;11.43;68.60
32081;BME280;18593;51.426;7.030;2023-03-22T06:42:00;99795.94;;;11.45;68.45
32081;BME280;18593;51.426;7.030;2023-03-22T06:44:27;99789.53;;;11.46;68.25
32081;BME280;18593;51.426;7.030;2023-03-22T06:47:11;99792.56;;;11.50;68.13
32081;BME280;18593;51.426;7.030;2023-03-22T06:50:17;99788.63;;;11.52;68.02
32081;BME280;18593;51.426;7.030;2023-03-22T06:53:02;99789.19;;;11.54;67.95
32081;BME280;18593;51.426;7.030;2023-03-22T06:55:30;99796.75;;;11.57;68.04
32081;BME280;18593;51.426;7.030;2023-03-22T06:57:59;99796.06;;;11.62;68.18
32081;BME280;18593;51.426;7.030;2023-03-22T07:00:26;99789.41;;;11.65;68.11
32081;BME280;18593;51.426;7.030;2023-03-22T07:02:53;99792.69;;;11.67;67.71
32081;BME280;18593;51.426;7.030;2023-03-22T07:05:38;99788.16;;;11.67;67.61
32081;BME280;18593;51.426;7.030;2023-03-22T07:08:06;99781.75;;;11.68;67.59
32081;BME280;18593;51.426;7.030;2023-03-22T07:10:37;99796.72;;;11.69;67.67
32081;BME280;18593;51.426;7.030;2023-03-22T07:13:05;99779.66;;;11.70;67.28
32081;BME280;18593;51.426;7.030;2023-03-22T07:15:33;99781.50;;;11.70;67.24
32081;BME280;18593;51.426;7.030;2023-03-22T07:18:10;99775.94;;;11.71;66.80
32081;BME280;18593;51.426;7.030;2023-03-22T07:20:37;99765.47;;;11.70;67.13
32081;BME280;18593;51.426;7.030;2023-03-22T07:23:08;99778.84;;;11.70;66.87
32081;BME280;18593;51.426;7.030;2023-03-22T07:25:43;99766.88;;;11.72;66.92
32081;BME280;18593;51.426;7.030;2023-03-22T07:28:36;99769.66;;;11.77;67.03
32081;BME280;18593;51.426;7.030;2023-03-22T07:31:07;99770.00;;;11.81;66.63
32081;BME280;18593;51.426;7.030;2023-03-22T07:33:45;99765.81;;;11.85;66.24
32081;BME280;18593;51.426;7.030;2023-03-22T07:36:13;99767.56;;;11.91;66.59
32081;BME280;18593;51.426;7.030;2023-03-22T07:38:41;99770.91;;;11.98;66.33
32081;BME280;18593;51.426;7.030;2023-03-22T07:41:14;99761.72;;;12.06;66.58
32081;BME280;18593;51.426;7.030;2023-03-22T07:43:53;99768.50;;;12.14;65.99
32081;BME280;18593;51.426;7.030;2023-03-22T07:46:22;99758.72;;;12.19;65.37
32081;BME280;18593;51.426;7.030;2023-03-22T07:48:54;99765.47;;;12.22;64.99
32081;BME280;18593;51.426;7.030;2023-03-22T07:51:39;99761.03;;;12.27;65.32
32081;BME280;18593;51.426;7.030;2023-03-22T07:54:08;99752.28;;;12.32;64.32
32081;BME280;18593;51.426;7.030;2023-03-22T07:56:35;99769.81;;;12.40;64.91
32081;BME280;18593;51.426;7.030;2023-03-22T07:59:02;99764.78;;;12.43;64.83
32081;BME280;18593;51.426;7.030;2023-03-22T08:01:29;99762.34;;;12.42;63.42
32081;BME280;18593;51.426;7.030;2023-03-22T08:04:06;99765.03;;;12.42;63.73
32081;BME280;18593;51.426;7.030;2023-03-22T08:06:54;99766.31;;;12.39;63.15
32081;BME280;18593;51.426;7.030;2023-03-22T08:09:25;99766.31;;;12.39;63.54
32081;BME280;18593;51.426;7.030;2023-03-22T08:11:52;99771.66;;;12.39;63.72
32081;BME280;18593;51.426;7.030;2023-03-22T08:14:19;99771.91;;;12.37;63.56
32081;BME280;18593;51.426;7.030;2023-03-22T08:16:46;99768.41;;;12.37;63.44
32081;BME280;18593;51.426;7.030;2023-03-22T08:19:13;99768.16;;;12.38;63.51
32081;BME280;18593;51.426;7.030;2023-03-22T08:21:41;99772.72;;;12.38;63.74
32081;BME280;18593;51.426;7.030;2023-03-22T08:24:19;99775.97;;;12.40;63.77
32081;BME280;18593;51.426;7.030;2023-03-22T08:27:03;99773.28;;;12.40;63.64
32081;BME280;18593;51.426;7.030;2023-03-22T08:29:40;99773.06;;;12.42;63.36
32081;BME280;18593;51.426;7.030;2023-03-22T08:32:07;99768.03;;;12.45;63.42
32081;BME280;18593;51.426;7.030;2023-03-22T08:34:35;99775.56;;;12.48;62.40
32081;BME280;18593;51.426;7.030;2023-03-22T08:37:03;99770.81;;;12.50;62.52
32081;BME280;18593;51.426;7.030;2023-03-22T08:39:30;99776.16;;;12.50;62.24
32081;BME280;18593;51.426;7.030;2023-03-22T08:42:18;99784.19;;;12.50;60.70
32081;BME280;18593;51.426;7.030;2023-03-22T08:44:45;99784.97;;;12.51;61.40
32081;BME280;18593;51.426;7.030;2023-03-22T08:47:13;99775.91;;;12.52;61.01
32081;BME280;18593;51.426;7.030;2023-03-22T08:49:41;99779.63;;;12.51;61.08
32081;BME280;18593;51.426;7.030;2023-03-22T08:52:18;99781.72;;;12.49;59.88
32081;BME280;18593;51.426;7.030;2023-03-22T08:55:12;99777.94;;;12.45;60.52
32081;BME280;18593;51.426;7.030;2023-03-22T08:58:01;99764.56;;;12.45;60.11
32081;BME280;18593;51.426;7.030;2023-03-22T09:00:49;99773.84;;;12.42;59.89
32081;BME280;18593;51.426;7.030;2023-03-22T09:03:32;99777.09;;;12.44;60.37
32081;BME280;18593;51.426;7.030;2023-03-22T09:05:59;99767.44;;;12.43;59.96
32081;BME280;18593;51.426;7.030;2023-03-22T09:08:29;99768.03;;;12.45;60.29
32081;BME280;18593;51.426;7.030;2023-03-22T09:11:07;99771.59;;;12.51;60.99
32081;BME280;18593;51.426;7.030;2023-03-22T09:13:36;99775.66;;;12.53;60.13
32081;BME280;18593;51.426;7.030;2023-03-22T09:16:03;99768.53;;;12.59;59.98
32081;BME280;18593;51.426;7.030;2023-03-22T09:18:32;99758.50;;;12.66;61.14
32081;BME280;18593;51.426;7.030;2023-03-22T09:21:03;99756.72;;;12.72;59.25
32081;BME280;18593;51.426;7.030;2023-03-22T09:23:49;99772.69;;;12.83;58.97
32081;BME280;18593;51.426;7.030;2023-03-22T09:26:18;99761.00;;;12.89;59.27
32081;BME280;18593;51.426;7.030;2023-03-22T09:28:51;99758.63;;;12.93;59.11
32081;BME280;18593;51.426;7.030;2023-03-22T09:31:18;99758.50;;;13.00;59.13
32081;BME280;18593;51.426;7.030;2023-03-22T09:33:46;99759.72;;;13.09;58.31
32081;BME280;18593;51.426;7.030;2023-03-22T09:36:13;99758.72;;;13.15;58.36
32081;BME280;18593;51.426;7.030;2023-03-22T09:38:40;99759.28;;;13.17;57.10
32081;BME280;18593;51.426;7.030;2023-03-22T09:41:11;99751.34;;;13.22;57.22
32081;BME280;18593;51.426;7.030;2023-03-22T09:43:41;99748.19;;;13.25;56.82
32081;BME280;18593;51.426;7.030;2023-03-22T09:46:16;99745.50;;;13.25;55.44
32081;BME280;18593;51.426;7.030;2023-03-22T09:48:45;99760.50;;;13.26;55.09
32081;BME280;18593;51.426;7.030;2023-03-22T09:51:27;99756.47;;;13.24;54.53
32081;BME280;18593;51.426;7.030;2023-03-22T09:53:56;99754.03;;;13.22;55.84
32081;BME280;18593;51.426;7.030;2023-03-22T09:56:24;99758.34;;;13.23;54.78
32081;BME280;18593;51.426;7.030;2023-03-22T09:58:53;99752.63;;;13.20;53.94
32081;BME280;18593;51.426;7.030;2023-03-22T10:01:26;99763.00;;;13.16;54.88
32081;BME280;18593;51.426;7.030;2023-03-22T10:04:14;99759.53;;;13.15;55.17
32081;BME280;18593;51.426;7.030;2023-03-22T10:06:47;99753.38;;;13.15;55.59
32081;BME280;18593;51.426;7.030;2023-03-22T10:09:17;99757.59;;;13.11;55.62
32081;BME280;18593;51.426;7.030;2023-03-22T10:11:48;99754.91;;;13.11;55.72
32081;BME280;18593;51.426;7.030;2023-03-22T10:14:26;99750.63;;;13.10;56.07
32081;BME280;18593;51.426;7.030;2023-03-22T10:16:58;99746.06;;;13.10;55.96
32081;BME280;18593;51.426;7.030;2023-03-22T10:19:30;99738.03;;;13.10;56.17
32081;BME280;18593;51.426;7.030;2023-03-22T10:22:00;99753.63;;;13.13;56.03
32081;BME280;18593;51.426;7.030;2023-03-22T10:24:29;99751.00;;;13.19;55.90
32081;BME280;18593;51.426;7.030;2023-03-22T10:26:57;99748.66;;;13.22;55.88
32081;BME280;18593;51.426;7.030;2023-03-22T10:29:27;99735.59;;;13.26;55.62
32081;BME280;18593;51.426;7.030;2023-03-22T10:31:55;99745.84;;;13.29;55.75
32081;BME280;18593;51.426;7.030;2023-03-22T10:34:25;99747.78;;;13.33;55.95
32081;BME280;18593;51.426;7.030;2023-03-22T10:36:55;99740.88;;;13.37;55.67
32081;BME280;18593;51.426;7.030;2023-03-22T10:39:27;99744.34;;;13.38;54.53
32081;BME280;18593;51.426;7.030;2023-03-22T10:41:57;99739.81;;;13.38;54.76
32081;BME280;18593;51.426;7.030;2023-03-22T10:44:25;99740.94;;;13.43;55.97
32081;BME280;18593;51.426;7.030;2023-03-22T10:46:54;99736.69;;;13.47;55.74
32081;BME280;18593;51.426;7.030;2023-03-22T10:49:26;99743.84;;;13.41;54.81
32081;BME280;18593;51.426;7.030;2023-03-22T10:51:57;99751.13;;;13.46;54.97
32081;BME280;18593;51.426;7.030;2023-03-22T10:54:26;99747.38;;;13.47;54.40
32081;BME280;18593;51.426;7.030;2023-03-22T10:56:53;99748.22;;;13.47;54.57
32081;BME280;18593;51.426;7.030;2023-03-22T10:59:43;99753.66;;;13.52;55.43
32081;BME280;18593;51.426;7.030;2023-03-22T11:02:20;99742.63;;;13.49;54.22
32081;BME280;18593;51.426;7.030;2023-03-22T11:04:50;99748.72;;;13.44;54.34
32081;BME280;18593;51.426;7.030;2023-03-22T11:07:28;99746.59;;;13.46;54.60
32081;BME280;18593;51.426;7.030;2023-03-22T11:10:16;99745.28;;;13.49;55.12
32081;BME280;18593;51.426;7.030;2023-03-22T11:12:48;99752.25;;;13.50;54.53
32081;BME280;18593;51.426;7.030;2023-03-22T11:15:22;99753.06;;;13.50;54.59
32081;BME280;18593;51.426;7.030;2023-03-22T11:17:50;99745.84;;;13.51;54.49
32081;BME280;18593;51.426;7.030;2023-03-22T11:20:19;99738.88;;;13.50;54.92
32081;BME280;18593;51.426;7.030;2023-03-22T11:22:47;99741.06;;;13.53;54.17
32081;BME280;18593;51.426;7.030;2023-03-22T11:25:16;99737.88;;;13.56;55.16
32081;BME280;18593;51.426;7.030;2023-03-22T11:27:49;99745.69;;;13.57;54.47
32081;BME280;18593;51.426;7.030;2023-03-22T11:30:19;99741.63;;;13.55;54.01
32081;BME280;18593;51.426;7.030;2023-03-22T11:32:47;99744.81;;;13.52;54.20
32081;BME280;18593;51.426;7.030;2023-03-22T11:35:16;99743.69;;;13.48;54.42
32081;BME280;18593;51.426;7.030;2023-03-22T11:37:46;99744.72;;;13.47;55.06
32081;BME280;18593;51.426;7.030;2023-03-22T11:40:14;99743.91;;;13.46;54.32
32081;BME280;18593;51.426;7.030;2023-03-22T11:42:41;99746.84;;;13.45;54.90
32081;BME280;18593;51.426;7.030;2023-03-22T11:45:12;99747.91;;;13.44;54.24
32081;BME280;18593;51.426;7.030;2023-03-22T11:47:40;99733.44;;;13.45;54.18
32081;BME280;18593;51.426;7.030;2023-03-22T11:50:11;99745.16;;;13.38;53.72
32081;BME280;18593;51.426;7.030;2023-03-22T11:52:48;99741.59;;;13.33;53.83
32081;BME280;18593;51.426;7.030;2023-03-22T11:55:15;99735.94;;;13.29;53.46
32081;BME280;18593;51.426;7.030;2023-03-22T11:57:42;99749.88;;;13.31;54.63
32081;BME280;18593;51.426;7.030;2023-03-22T12:00:12;99729.19;;;13.27;53.48
32081;BME280;18593;51.426;7.030;2023-03-22T12:02:46;99730.56;;;13.29;53.96
32081;BME280;18593;51.426;7.030;2023-03-22T12:05:18;99723.59;;;13.28;53.44
32081;BME280;18593;51.426;7.030;2023-03-22T12:07:51;99718.72;;;13.25;53.53
32081;BME280;18593;51.426;7.030;2023-03-22T12:10:21;99720.03;;;13.23;54.26
32081;BME280;18593;51.426;7.030;2023-03-22T12:12:53;99710.69;;;13.25;54.22
32081;BME280;18593;51.426;7.030;2023-03-22T12:15:22;99721.88;;;13.22;54.24
32081;BME280;18593;51.426;7.030;2023-03-22T12:17:53;99713.53;;;13.19;54.52
32081;BME280;18593;51.426;7.030;2023-03-22T12:20:30;99720.50;;;13.20;54.80
32081;BME280;18593;51.426;7.030;2023-03-22T12:22:59;99715.16;;;13.20;54.68
32081;BME280;18593;51.426;7.030;2023-03-22T12:25:28;99717.81;;;13.20;54.67
32081;BME280;18593;51.426;7.030;2023-03-22T12:27:58;99724.34;;;13.24;54.69
32081;BME280;18593;51.426;7.030;2023-03-22T12:30:29;99709.63;;;13.26;53.74
32081;BME280;18593;51.426;7.030;2023-03-22T12:32:58;99712.81;;;13.23;53.48
32081;BME280;18593;51.426;7.030;2023-03-22T12:35:29;99705.09;;;13.27;53.46
32081;BME280;18593;51.426;7.030;2023-03-22T12:37:58;99710.44;;;13.27;53.88
32081;BME280;18593;51.426;7.030;2023-03-22T12:40:31;99721.41;;;13.25;52.33
32081;BME280;18593;51.426;7.030;2023-03-22T12:43:01;99718.19;;;13.23;52.14
32081;BME280;18593;51.426;7.030;2023-03-22T12:45:32;99718.25;;;13.28;53.02
32081;BME280;18593;51.426;7.030;2023-03-22T12:48:05;99718.25;;;13.28;52.33
32081;BME280;18593;51.426;7.030;2023-03-22T12:50:35;99724.09;;;13.25;53.04
32081;BME280;18593;51.426;7.030;2023-03-22T12:53:04;99722.91;;;13.21;54.10
32081;BME280;18593;51.426;7.030;2023-03-22T12:55:34;99734.13;;;13.18;55.32
32081;BME280;18593;51.426;7.030;2023-03-22T12:58:04;99729.28;;;13.15;55.79
32081;BME280;18593;51.426;7.030;2023-03-22T13:00:33;99732.19;;;13.13;55.91
32081;BME280;18593;51.426;7.030;2023-03-22T13:03:07;99735.34;;;13.10;56.02
32081;BME280;18593;51.426;7.030;2023-03-22T13:05:45;99729.53;;;13.13;57.42
32081;BME280;18593;51.426;7.030;2023-03-22T13:08:13;99726.03;;;13.13;56.58
32081;BME280;18593;51.426;7.030;2023-03-22T13:10:59;99728.88;;;13.06;56.18
32081;BME280;18593;51.426;7.030;2023-03-22T13:13:41;99728.88;;;13.06;56.66
32081;BME280;18593;51.426;7.030;2023-03-22T13:16:46;99728.53;;;13.03;55.69
32081;BME280;18593;51.426;7.030;2023-03-22T13:19:32;99724.03;;;13.03;56.35
32081;BME280;18593;51.426;7.030;2023-03-22T13:22:17;99714.13;;;13.04;56.04
32081;BME280;18593;51.426;7.030;2023-03-22T13:25:11;99716.53;;;13.05;56.17
32081;BME280;18593;51.426;7.030;2023-03-22T13:27:42;99723.28;;;13.08;56.07
32081;BME280;18593;51.426;7.030;2023-03-22T13:30:21;99716.63;;;13.10;55.84
32081;BME280;18593;51.426;7.030;2023-03-22T13:32:51;99717.44;;;13.11;55.85
32081;BME280;18593;51.426;7.030;2023-03-22T13:35:21;99720.09;;;13.11;55.05